Map

Track Data

SID SEASON NUMBER BASIN SUBBASIN NAME ISO_TIME NATURE LAT LON WMO_WIND WMO_PRES WMO_AGENCY TRACK_TYPE DIST2LAND LANDFALL IFLAG USA_AGENCY USA_ATCF_ID USA_LAT USA_LON USA_RECORD USA_STATUS USA_WIND USA_PRES USA_SSHS USA_R34_NE USA_R34_SE USA_R34_SW USA_R34_NW USA_R50_NE USA_R50_SE USA_R50_SW USA_R50_NW USA_R64_NE USA_R64_SE USA_R64_SW USA_R64_NW USA_POCI USA_ROCI USA_RMW USA_EYE TOKYO_LAT TOKYO_LON TOKYO_GRADE TOKYO_WIND TOKYO_PRES TOKYO_R50_DIR TOKYO_R50_LONG TOKYO_R50_SHORT TOKYO_R30_DIR TOKYO_R30_LONG TOKYO_R30_SHORT TOKYO_LAND CMA_LAT CMA_LON CMA_CAT CMA_WIND CMA_PRES HKO_LAT HKO_LON HKO_CAT HKO_WIND HKO_PRES NEWDELHI_LAT NEWDELHI_LON NEWDELHI_GRADE NEWDELHI_WIND NEWDELHI_PRES NEWDELHI_CI NEWDELHI_DP NEWDELHI_POCI REUNION_LAT REUNION_LON REUNION_TYPE REUNION_WIND REUNION_PRES REUNION_TNUM REUNION_CI REUNION_RMW REUNION_R34_NE REUNION_R34_SE REUNION_R34_SW REUNION_R34_NW REUNION_R50_NE REUNION_R50_SE REUNION_R50_SW REUNION_R50_NW REUNION_R64_NE REUNION_R64_SE REUNION_R64_SW REUNION_R64_NW BOM_LAT BOM_LON BOM_TYPE BOM_WIND BOM_PRES BOM_TNUM BOM_CI BOM_RMW BOM_R34_NE BOM_R34_SE BOM_R34_SW BOM_R34_NW BOM_R50_NE BOM_R50_SE BOM_R50_SW BOM_R50_NW BOM_R64_NE BOM_R64_SE BOM_R64_SW BOM_R64_NW BOM_ROCI BOM_POCI BOM_EYE BOM_POS_METHOD BOM_PRES_METHOD NADI_LAT NADI_LON NADI_CAT NADI_WIND NADI_PRES WELLINGTON_LAT WELLINGTON_LON WELLINGTON_WIND WELLINGTON_PRES DS824_LAT DS824_LON DS824_STAGE DS824_WIND DS824_PRES TD9636_LAT TD9636_LON TD9636_STAGE TD9636_WIND TD9636_PRES TD9635_LAT TD9635_LON TD9635_WIND TD9635_PRES TD9635_ROCI NEUMANN_LAT NEUMANN_LON NEUMANN_CLASS NEUMANN_WIND NEUMANN_PRES MLC_LAT MLC_LON MLC_CLASS MLC_WIND MLC_PRES USA_GUST BOM_GUST BOM_GUST_PER REUNION_GUST REUNION_GUST_PER USA_SEAHGT USA_SEARAD_NE USA_SEARAD_SE USA_SEARAD_SW USA_SEARAD_NW STORM_SPEED STORM_DIR
1931250N12297 1931 35 NA CS NOT_NAMED 1931-09-06 18:00:00 TS 12.4000 -62.7000 30 hurdat_atl main 190 190 O_____________ hurdat_atl AL061931 12.4000 -62.7000 TD 30 -1 18 283
1931250N12297 1931 35 NA CS NOT_NAMED 1931-09-06 21:00:00 TS 12.5982 -63.6098 main 219 219 P_____________ AL061931 12.5982 -63.6098 TD 32 -1 18 283
1931250N12297 1931 35 NA CS NOT_NAMED 1931-09-07 00:00:00 TS 12.8000 -64.5000 35 hurdat_atl main 248 248 O_____________ hurdat_atl AL061931 12.8000 -64.5000 TS 35 0 18 283
1931250N12297 1931 35 NA CS NOT_NAMED 1931-09-07 03:00:00 TS 13.0071 -65.3576 main 276 274 P_____________ AL061931 13.0071 -65.3576 TS 37 0 17 284
1931250N12297 1931 35 NA CS NOT_NAMED 1931-09-07 06:00:00 TS 13.2000 -66.2000 40 hurdat_atl main 291 280 O_____________ hurdat_atl AL061931 13.2000 -66.2000 TS 40 0 17 282
1931250N12297 1931 35 NA CS NOT_NAMED 1931-09-07 09:00:00 TS 13.3571 -67.0427 main 289 254 P_____________ AL061931 13.3571 -67.0427 TS 40 0 17 280
1931250N12297 1931 35 NA CS NOT_NAMED 1931-09-07 12:00:00 TS 13.5000 -67.9000 40 hurdat_atl main 254 212 O_____________ hurdat_atl AL061931 13.5000 -67.9000 TS 40 0 17 280
1931250N12297 1931 35 NA CS NOT_NAMED 1931-09-07 15:00:00 TS 13.6573 -68.7925 main 215 190 P_____________ AL061931 13.6573 -68.7925 TS 42 0 18 280
1931250N12297 1931 35 NA CS NOT_NAMED 1931-09-07 18:00:00 TS 13.8000 -69.7000 45 hurdat_atl main 191 190 O_____________ hurdat_atl AL061931 13.8000 -69.7000 TS 45 0 18 278
1931250N12297 1931 35 NA CS NOT_NAMED 1931-09-07 21:00:00 TS 13.9073 -70.6076 main 194 176 P_____________ AL061931 13.9073 -70.6076 TS 47 0 18 277
1931250N12297 1931 35 NA CS NOT_NAMED 1931-09-08 00:00:00 TS 14.0000 -71.5000 50 hurdat_atl main 179 179 O_____________ hurdat_atl AL061931 14.0000 -71.5000 TS 50 0 17 276
1931250N12297 1931 35 NA CS NOT_NAMED 1931-09-08 03:00:00 TS 14.0922 -72.3651 main 204 204 P_____________ AL061931 14.0922 -72.3651 TS 52 0 17 277
1931250N12297 1931 35 NA CS NOT_NAMED 1931-09-08 06:00:00 TS 14.2000 -73.2000 55 hurdat_atl main 248 248 O_____________ hurdat_atl AL061931 14.2000 -73.2000 TS 55 0 16 279
1931250N12297 1931 35 NA CS NOT_NAMED 1931-09-08 09:00:00 TS 14.3422 -74.0075 main 305 305 P_____________ AL061931 14.3422 -74.0075 TS 57 0 16 281
1931250N12297 1931 35 NA CS NOT_NAMED 1931-09-08 12:00:00 TS 14.5000 -74.8000 60 hurdat_atl main 375 374 O_____________ hurdat_atl AL061931 14.5000 -74.8000 TS 60 0 16 282
1931250N12297 1931 35 NA CS NOT_NAMED 1931-09-08 15:00:00 TS 14.6573 -75.6075 main 363 335 P_____________ AL061931 14.6573 -75.6075 TS 62 0 16 281
1931250N12297 1931 35 NA CS NOT_NAMED 1931-09-08 18:00:00 TS 14.8000 -76.4000 65 hurdat_atl main 335 313 O_____________ hurdat_atl AL061931 14.8000 -76.4000 HU 65 1 15 279
1931250N12297 1931 35 NA CS NOT_NAMED 1931-09-08 21:00:00 TS 14.9073 -77.1651 main 313 303 P_____________ AL061931 14.9073 -77.1651 HU 65 1 15 278
1931250N12297 1931 35 NA CS NOT_NAMED 1931-09-09 00:00:00 TS 15.0000 -77.9000 65 hurdat_atl main 311 311 O_____________ hurdat_atl AL061931 15.0000 -77.9000 HU 65 1 14 278
1931250N12297 1931 35 NA CS NOT_NAMED 1931-09-09 03:00:00 TS 15.0922 -78.6077 main 327 327 P_____________ AL061931 15.0922 -78.6077 HU 67 1 14 278
1931250N12297 1931 35 NA CS NOT_NAMED 1931-09-09 06:00:00 TS 15.2000 -79.3000 70 hurdat_atl main 346 334 O_____________ hurdat_atl AL061931 15.2000 -79.3000 HU 70 1 14 281
1931250N12297 1931 35 NA CS NOT_NAMED 1931-09-09 09:00:00 TS 15.3422 -79.9925 main 334 263 P_____________ AL061931 15.3422 -79.9925 HU 70 1 14 283
1931250N12297 1931 35 NA CS NOT_NAMED 1931-09-09 12:00:00 TS 15.5000 -80.7000 70 hurdat_atl main 263 194 O_____________ hurdat_atl AL061931 15.5000 -80.7000 HU 70 1 14 282
1931250N12297 1931 35 NA CS NOT_NAMED 1931-09-09 15:00:00 TS 15.6423 -81.4427 main 194 131 P_____________ AL061931 15.6423 -81.4427 HU 72 1 15 282
1931250N12297 1931 35 NA CS NOT_NAMED 1931-09-09 18:00:00 TS 15.8000 -82.2000 75 hurdat_atl main 131 92 O_____________ hurdat_atl AL061931 15.8000 -82.2000 HU 75 1 15 284
1931250N12297 1931 35 NA CS NOT_NAMED 1931-09-09 21:00:00 TS 15.9923 -82.9575 main 89 74 P_____________ AL061931 15.9923 -82.9575 HU 80 1 15 286
1931250N12297 1931 35 NA CS NOT_NAMED 1931-09-10 00:00:00 TS 16.2000 -83.7000 85 hurdat_atl main 74 56 O_____________ hurdat_atl AL061931 16.2000 -83.7000 HU 85 2 15 286
1931250N12297 1931 35 NA CS NOT_NAMED 1931-09-10 03:00:00 TS 16.3997 -84.4077 main 64 56 P_____________ AL061931 16.3997 -84.4077 HU 90 2 14 287
1931250N12297 1931 35 NA CS NOT_NAMED 1931-09-10 06:00:00 TS 16.6000 -85.1000 95 hurdat_atl main 78 78 O_____________ hurdat_atl AL061931 16.6000 -85.1000 HU 95 2 14 287
1931250N12297 1931 35 NA CS NOT_NAMED 1931-09-10 09:00:00 TS 16.7998 -85.8076 main 100 100 P_____________ AL061931 16.7998 -85.8076 HU 100 3 14 287
1931250N12297 1931 35 NA CS NOT_NAMED 1931-09-10 12:00:00 TS 17.0000 -86.5000 105 hurdat_atl main 134 119 O_____________ hurdat_atl AL061931 17.0000 -86.5000 HU 105 3 14 287
1931250N12297 1931 35 NA CS NOT_NAMED 1931-09-10 15:00:00 TS 17.1922 -87.1577 main 108 43 P_____________ AL061931 17.1922 -87.1577 HU 110 3 13 288
1931250N12297 1931 35 NA CS NOT_NAMED 1931-09-10 18:00:00 TS 17.4000 -87.8000 115 hurdat_atl main 43 0 O_____________ hurdat_atl AL061931 17.4000 -87.8000 HU 115 4 13 290
1931250N12297 1931 35 NA NA NOT_NAMED 1931-09-10 21:00:00 TS 17.6348 -88.4502 main 0 0 P_____________ AL061931 17.6348 -88.4502 HU 97 3 13 292
1931250N12297 1931 35 NA NA NOT_NAMED 1931-09-11 00:00:00 TS 17.9000 -89.1000 80 hurdat_atl main 0 0 O_____________ hurdat_atl AL061931 17.9000 -89.1000 HU 80 1 14 294
1931250N12297 1931 35 NA NA NOT_NAMED 1931-09-11 03:00:00 TS 18.1924 -89.7576 main 0 0 P_____________ AL061931 18.1924 -89.7576 HU 67 1 14 296
1931250N12297 1931 35 NA NA NOT_NAMED 1931-09-11 06:00:00 TS 18.5000 -90.4000 55 hurdat_atl main 0 0 O_____________ hurdat_atl AL061931 18.5000 -90.4000 TS 55 0 13 297
1931250N12297 1931 35 NA NA NOT_NAMED 1931-09-11 09:00:00 TS 18.7923 -91.0153 main 0 0 P_____________ AL061931 18.7923 -91.0153 TS 52 0 13 298
1931250N12297 1931 35 NA GM NOT_NAMED 1931-09-11 12:00:00 TS 19.1000 -91.6000 50 hurdat_atl main 24 24 O_____________ hurdat_atl AL061931 19.1000 -91.6000 TS 50 0 13 301
1931250N12297 1931 35 NA GM NOT_NAMED 1931-09-11 15:00:00 TS 19.4348 -92.1578 main 89 89 P_____________ AL061931 19.4348 -92.1578 TS 50 0 13 304
1931250N12297 1931 35 NA GM NOT_NAMED 1931-09-11 18:00:00 TS 19.8000 -92.7000 50 hurdat_atl main 134 134 O_____________ hurdat_atl AL061931 19.8000 -92.7000 TS 50 0 13 306
1931250N12297 1931 35 NA GM NOT_NAMED 1931-09-11 21:00:00 TS 20.1923 -93.2502 main 189 189 P_____________ AL061931 20.1923 -93.2502 TS 50 0 13 308
1931250N12297 1931 35 NA GM NOT_NAMED 1931-09-12 00:00:00 TS 20.6000 -93.8000 50 hurdat_atl main 251 245 O_____________ hurdat_atl AL061931 20.6000 -93.8000 TS 50 0 13 308
1931250N12297 1931 35 NA GM NOT_NAMED 1931-09-12 03:00:00 TS 20.9998 -94.3503 main 241 228 P_____________ AL061931 20.9998 -94.3503 TS 50 0 13 308
1931250N12297 1931 35 NA GM NOT_NAMED 1931-09-12 06:00:00 TS 21.4000 -94.9000 50 hurdat_atl main 228 197 O_____________ hurdat_atl AL061931 21.4000 -94.9000 TS 50 0 13 308
1931250N12297 1931 35 NA GM NOT_NAMED 1931-09-12 09:00:00 TS 21.8225 -95.4649 main 187 149 P_____________ AL061931 21.8225 -95.4649 TS 47 0 13 308
1931250N12297 1931 35 NA GM NOT_NAMED 1931-09-12 12:00:00 TS 22.2000 -96.0000 45 hurdat_atl main 149 128 O_____________ hurdat_atl AL061931 22.2000 -96.0000 TS 45 0 11 305
1931250N12297 1931 35 NA GM NOT_NAMED 1931-09-12 15:00:00 TS 22.4798 -96.4729 main 128 92 P_____________ AL061931 22.4798 -96.4729 TS 42 0 10 301
1931250N12297 1931 35 NA GM NOT_NAMED 1931-09-12 18:00:00 TS 22.7000 -96.9000 40 hurdat_atl main 92 51 O_____________ hurdat_atl AL061931 22.7000 -96.9000 TS 40 0 9 299
1931250N12297 1931 35 NA GM NOT_NAMED 1931-09-12 21:00:00 TS 22.9148 -97.3077 main 51 10 P_____________ AL061931 22.9148 -97.3077 TS 37 0 8 298
1931250N12297 1931 35 NA GM NOT_NAMED 1931-09-13 00:00:00 TS 23.1000 -97.7000 35 hurdat_atl main 10 0 O_____________ hurdat_atl AL061931 23.1000 -97.7000 TS 35 0 8 295
1931250N12297 1931 35 NA NA NOT_NAMED 1931-09-13 03:00:00 TS 23.2574 -98.1002 main 0 0 P_____________ AL061931 23.2574 -98.1002 TS 32 -1 8 292
1931250N12297 1931 35 NA NA NOT_NAMED 1931-09-13 06:00:00 TS 23.4000 -98.5000 30 hurdat_atl main 0 0 O_____________ hurdat_atl AL061931 23.4000 -98.5000 TD 30 -1 8 292
1931250N12297 1931 35 NA NA NOT_NAMED 1931-09-13 09:00:00 TS 23.5477 -98.8998 main 0 0 P_____________ AL061931 23.5477 -98.8998 TD 27 -1 8 292
1931250N12297 1931 35 NA NA NOT_NAMED 1931-09-13 12:00:00 TS 23.7000 -99.3000 25 hurdat_atl main 0 O_____________ hurdat_atl AL061931 23.7000 -99.3000 TD 25 -1 8 293

About IBTrACS Database

This database is a web-friendly format of International Best Track Archive for Climate Stewardship (IBTrACS), a global best track data archive curated by NOAA dating back to 1842.

Updated: 2021-10-27